Terminal Aerodrome Forecast
Issued by NWS

Home | Current Version | Previous Version | Text Only | Print | Product List | Glossary On
Versions: 1 2 3 4 5 6 7 8 9 10 11 12 13 14 15 16 17 18 19 20 21 22 23 24 25 26 27 28 29 30 31 32
000
FTUS44 KLIX 251153
TAFHDC
TAF
KHDC 251153Z 2512/2612 00000KT P6SM VCSH BKN200
     FM251900 14008KT P6SM VCTS BKN030CB
     FM260100 14009KT P6SM BKN025=

USA.gov is the U.S. government's official web portal to all federal, state and local government web resources and services.